Big Rapids, Michigan
Current Conditions -  °F | °C
As of 6:14 PM on Thursday 27 Nov 2014 (Local Time) from KRQB Reporting Station
Light Snow Light Snow  
Wind Chill: -11°   Ceiling: 1600
Heat Index: -7°   Visibility: 7mi
Dew Point: -8°   Wind: 7mph
Humidity: 87%   Direction: 320°NW
Pressure: 30.28"   Gusts: NA
Location:  43.7°N, 85.48°W
Report Text: KRQB 272314Z AUTO 32006KT 7SM -SN BKN016 BKN021 OVC041 M06/M08 A3028 RMK AO2 T10651083
Loading
Personal Weather Stations






























Interactive Weather Map New forecast layout! Learn more

10-Day Weather Forecast

Advertisements
Track Severe Weather on mobile